createdAt,value
2017-11-17T00:00:11.631Z,18.60
2017-11-17T00:01:16.578Z,18.60
2017-11-17T00:02:22.357Z,18.60
2017-11-17T00:03:27.821Z,18.60
2017-11-17T00:04:32.852Z,18.60
2017-11-17T00:05:38.024Z,18.60
2017-11-17T00:06:43.145Z,18.60
2017-11-17T00:07:49.610Z,18.60
2017-11-17T00:08:54.743Z,18.60
2017-11-17T00:09:59.749Z,18.60
2017-11-17T00:11:04.994Z,18.60
2017-11-17T00:12:10.133Z,18.60
2017-11-17T00:13:15.307Z,18.60
2017-11-17T00:14:20.296Z,18.60
2017-11-17T00:15:25.426Z,18.60
2017-11-17T00:16:30.687Z,18.60
2017-11-17T00:17:35.820Z,18.60
2017-11-17T00:18:40.965Z,18.60
2017-11-17T00:19:46.088Z,18.60
2017-11-17T00:20:51.515Z,18.60
2017-11-17T00:21:56.765Z,18.60
2017-11-17T00:23:01.818Z,18.60
2017-11-17T00:24:06.918Z,18.60
2017-11-17T00:25:11.863Z,18.60
2017-11-17T00:26:16.641Z,18.60
2017-11-17T00:27:21.518Z,18.60
2017-11-17T00:28:26.318Z,18.60
2017-11-17T00:29:31.076Z,18.50
2017-11-17T00:30:35.731Z,18.50
2017-11-17T00:31:40.442Z,18.50
2017-11-17T00:32:45.194Z,18.50
2017-11-17T00:33:49.844Z,18.50
2017-11-17T00:34:54.511Z,18.50
2017-11-17T00:35:59.255Z,18.50
2017-11-17T00:37:03.932Z,18.50
2017-11-17T00:38:08.814Z,18.50
2017-11-17T00:39:13.541Z,18.50
2017-11-17T00:40:18.335Z,18.50
2017-11-17T00:41:23.127Z,18.50
2017-11-17T00:42:27.825Z,18.50
2017-11-17T00:43:32.525Z,18.50
2017-11-17T00:44:37.133Z,18.50
2017-11-17T00:45:41.903Z,18.50
2017-11-17T00:46:46.637Z,18.50
2017-11-17T00:47:51.418Z,18.50
2017-11-17T00:48:56.124Z,18.50
2017-11-17T00:50:00.699Z,18.50
2017-11-17T00:51:05.440Z,18.50
2017-11-17T00:52:10.096Z,18.50
2017-11-17T00:53:14.822Z,18.50
2017-11-17T00:54:19.559Z,18.50
2017-11-17T00:55:24.161Z,18.50
2017-11-17T00:56:28.893Z,18.50
2017-11-17T00:57:33.579Z,18.50
2017-11-17T00:58:38.311Z,18.50
2017-11-17T00:59:43.042Z,18.50
2017-11-17T01:00:47.703Z,18.50
2017-11-17T01:01:52.392Z,18.50
2017-11-17T01:02:57.152Z,18.40
2017-11-17T01:04:01.743Z,18.40
2017-11-17T01:05:06.481Z,18.50
2017-11-17T01:06:11.184Z,18.40
2017-11-17T01:07:15.778Z,18.40
2017-11-17T01:08:22.498Z,18.40
2017-11-17T01:09:27.287Z,18.40
2017-11-17T01:10:31.912Z,18.40
2017-11-17T01:11:36.707Z,18.40
2017-11-17T01:12:41.552Z,18.40
2017-11-17T01:13:46.371Z,18.50
2017-11-17T01:14:51.251Z,18.40
2017-11-17T01:15:55.871Z,18.40
2017-11-17T01:17:00.654Z,18.40
2017-11-17T01:18:05.346Z,18.40
2017-11-17T01:19:09.972Z,18.40
2017-11-17T01:20:14.543Z,18.40
2017-11-17T01:21:19.224Z,18.40
2017-11-17T01:22:23.916Z,18.40
2017-11-17T01:23:28.587Z,18.40
2017-11-17T01:24:33.444Z,18.40
2017-11-17T01:25:38.221Z,18.40
2017-11-17T01:26:42.781Z,18.40
2017-11-17T01:27:47.549Z,18.40
2017-11-17T01:28:52.150Z,18.40
2017-11-17T01:29:56.757Z,18.40
2017-11-17T01:31:01.427Z,18.40
2017-11-17T01:32:05.956Z,18.40
2017-11-17T01:33:10.688Z,18.40
2017-11-17T01:34:15.269Z,18.40
2017-11-17T01:35:19.952Z,18.40
2017-11-17T01:36:24.659Z,18.40
2017-11-17T01:37:29.256Z,18.40
2017-11-17T01:38:33.980Z,18.40
2017-11-17T01:39:38.787Z,18.40
2017-11-17T01:40:43.425Z,18.40
2017-11-17T01:41:48.030Z,18.40
2017-11-17T01:42:52.704Z,18.40
2017-11-17T01:43:57.431Z,18.40
2017-11-17T01:45:02.183Z,18.40
2017-11-17T01:46:06.983Z,18.40
2017-11-17T01:47:11.536Z,18.40
2017-11-17T01:48:16.239Z,18.40
2017-11-17T01:49:20.987Z,18.40
2017-11-17T01:50:25.809Z,18.40
2017-11-17T01:51:30.421Z,18.40
2017-11-17T01:52:35.099Z,18.40
2017-11-17T01:53:39.739Z,18.40
2017-11-17T01:54:44.428Z,18.40
2017-11-17T01:55:49.071Z,18.40
2017-11-17T01:56:53.790Z,18.40
2017-11-17T01:57:58.478Z,18.40
2017-11-17T01:59:03.313Z,18.30
2017-11-17T02:00:07.981Z,18.40
2017-11-17T02:01:12.600Z,18.40
2017-11-17T02:02:17.202Z,18.40
2017-11-17T02:03:21.922Z,18.30
2017-11-17T02:04:26.709Z,18.40
2017-11-17T02:05:31.390Z,18.30
2017-11-17T02:06:35.949Z,18.40
2017-11-17T02:07:40.595Z,18.30
2017-11-17T02:08:45.382Z,18.40
2017-11-17T02:09:50.018Z,18.30
2017-11-17T02:10:54.715Z,18.40
2017-11-17T02:11:59.507Z,18.30
2017-11-17T02:13:04.281Z,18.30
2017-11-17T02:14:08.880Z,18.30
2017-11-17T02:15:13.768Z,18.30
2017-11-17T02:16:18.517Z,18.30
2017-11-17T02:17:23.357Z,18.30
2017-11-17T02:18:28.090Z,18.40
2017-11-17T02:19:32.815Z,18.30
2017-11-17T02:20:37.503Z,18.30
2017-11-17T02:21:42.027Z,18.30
2017-11-17T02:22:46.675Z,18.40
2017-11-17T02:23:51.460Z,18.30
2017-11-17T02:24:56.217Z,18.30
2017-11-17T02:26:00.863Z,18.30
2017-11-17T02:27:05.416Z,18.30
2017-11-17T02:28:10.162Z,18.30
2017-11-17T02:29:14.943Z,18.30
2017-11-17T02:30:19.797Z,18.30
2017-11-17T02:31:24.425Z,18.30
2017-11-17T02:32:29.082Z,18.30
2017-11-17T02:33:33.643Z,18.30
2017-11-17T02:34:38.364Z,18.30
2017-11-17T02:35:43.046Z,18.30
2017-11-17T02:36:47.734Z,18.30
2017-11-17T02:37:52.430Z,18.30
2017-11-17T02:38:57.140Z,18.40
2017-11-17T02:40:01.862Z,18.30
2017-11-17T02:41:06.646Z,18.30
2017-11-17T02:42:11.353Z,18.30
2017-11-17T02:43:16.181Z,18.30
2017-11-17T02:44:20.913Z,18.30
2017-11-17T02:45:25.676Z,18.30
2017-11-17T02:46:30.294Z,18.30
2017-11-17T02:47:35.091Z,18.30
2017-11-17T02:48:39.950Z,18.30
2017-11-17T02:49:44.731Z,18.30
2017-11-17T02:50:49.328Z,18.30
2017-11-17T02:51:54.185Z,18.30
2017-11-17T02:52:58.889Z,18.30
2017-11-17T02:54:03.588Z,18.30
2017-11-17T02:55:08.285Z,18.30
2017-11-17T02:56:13.044Z,18.30
2017-11-17T02:57:17.875Z,18.30
2017-11-17T02:58:22.587Z,18.30
2017-11-17T02:59:27.466Z,18.30
2017-11-17T03:00:32.207Z,18.30
2017-11-17T03:01:36.895Z,18.30
2017-11-17T03:02:41.716Z,18.30
2017-11-17T03:03:46.391Z,18.30
2017-11-17T03:04:51.116Z,18.30
2017-11-17T03:05:55.806Z,18.30
2017-11-17T03:07:00.443Z,18.30
2017-11-17T03:08:05.171Z,18.30
2017-11-17T03:09:09.887Z,18.30
2017-11-17T03:10:14.745Z,18.30
2017-11-17T03:11:19.423Z,18.30
2017-11-17T03:12:24.140Z,18.30
2017-11-17T03:13:28.778Z,18.30
2017-11-17T03:14:33.432Z,18.30
2017-11-17T03:15:37.975Z,18.30
2017-11-17T03:16:42.831Z,18.30
2017-11-17T03:17:47.477Z,18.30
2017-11-17T03:18:52.105Z,18.30
2017-11-17T03:19:56.800Z,18.30
2017-11-17T03:21:01.473Z,18.30
2017-11-17T03:22:06.333Z,18.30
2017-11-17T03:23:11.154Z,18.30
2017-11-17T03:24:15.821Z,18.30
2017-11-17T03:25:20.508Z,18.30
2017-11-17T03:26:25.096Z,18.30
2017-11-17T03:27:29.808Z,18.30
2017-11-17T03:28:34.564Z,18.30
2017-11-17T03:29:39.275Z,18.30
2017-11-17T03:30:44.060Z,18.30
2017-11-17T03:31:48.679Z,18.30
2017-11-17T03:32:53.495Z,18.30
2017-11-17T03:33:58.327Z,18.30
2017-11-17T03:35:03.077Z,18.30
2017-11-17T03:36:07.599Z,18.30
2017-11-17T03:37:12.361Z,18.30
2017-11-17T03:38:17.197Z,18.30
2017-11-17T03:39:22.004Z,18.30
2017-11-17T03:40:26.584Z,18.30
2017-11-17T03:41:31.367Z,18.30
2017-11-17T03:42:36.011Z,18.30
2017-11-17T03:43:40.558Z,18.30
2017-11-17T03:44:45.169Z,18.30
2017-11-17T03:45:49.852Z,18.30
2017-11-17T03:46:54.491Z,18.30
2017-11-17T03:47:59.524Z,18.30
2017-11-17T03:49:04.225Z,18.30
2017-11-17T03:50:08.770Z,18.20
2017-11-17T03:51:14.088Z,18.30
2017-11-17T03:52:18.749Z,18.30
2017-11-17T03:53:23.491Z,18.20
2017-11-17T03:54:28.139Z,18.20
2017-11-17T03:55:32.695Z,18.20
2017-11-17T03:56:37.303Z,18.20
2017-11-17T03:57:41.810Z,18.30
2017-11-17T03:58:46.329Z,18.30
2017-11-17T03:59:51.019Z,18.30
2017-11-17T04:00:55.708Z,18.30
2017-11-17T04:02:00.500Z,18.30
2017-11-17T04:03:05.044Z,18.20
2017-11-17T04:04:09.741Z,18.30
2017-11-17T04:05:14.300Z,18.20
2017-11-17T04:06:18.888Z,18.20
2017-11-17T04:07:23.422Z,18.20
2017-11-17T04:08:28.085Z,18.30
2017-11-17T04:09:32.769Z,18.30
2017-11-17T04:10:37.572Z,18.30
2017-11-17T04:11:42.386Z,18.30
2017-11-17T04:12:47.898Z,18.30
2017-11-17T04:13:52.620Z,18.30
2017-11-17T04:14:57.856Z,18.30
2017-11-17T04:16:02.613Z,18.30
2017-11-17T04:17:07.202Z,18.30
2017-11-17T04:18:11.965Z,18.20
2017-11-17T04:19:16.624Z,18.30
2017-11-17T04:20:21.471Z,18.30
2017-11-17T04:21:26.233Z,18.30
2017-11-17T04:22:31.028Z,18.30
2017-11-17T04:23:35.672Z,18.30
2017-11-17T04:24:40.470Z,18.20
2017-11-17T04:25:45.234Z,18.20
2017-11-17T04:26:49.790Z,18.30
2017-11-17T04:27:54.735Z,18.20
2017-11-17T04:28:59.681Z,18.20
2017-11-17T04:30:04.797Z,18.20
2017-11-17T04:31:09.929Z,18.20
2017-11-17T04:32:14.784Z,18.20
2017-11-17T04:33:19.941Z,18.20
2017-11-17T04:34:25.033Z,18.20
2017-11-17T04:35:30.261Z,18.30
2017-11-17T04:36:35.349Z,18.30
2017-11-17T04:37:40.584Z,18.30
2017-11-17T04:38:45.703Z,18.30
2017-11-17T04:39:50.914Z,18.30
2017-11-17T04:40:56.522Z,18.20
2017-11-17T04:42:01.538Z,18.30
2017-11-17T04:43:06.609Z,18.30
2017-11-17T04:44:11.913Z,18.30
2017-11-17T04:45:16.800Z,18.20
2017-11-17T04:46:21.572Z,18.30
2017-11-17T04:47:26.700Z,18.30
2017-11-17T04:48:31.503Z,18.30
2017-11-17T04:49:36.393Z,18.30
2017-11-17T04:50:41.191Z,18.30
2017-11-17T04:51:46.312Z,18.30
2017-11-17T04:52:51.513Z,18.20
2017-11-17T04:53:56.670Z,18.20
2017-11-17T04:55:04.794Z,18.20
2017-11-17T04:56:09.942Z,18.30
2017-11-17T04:57:14.858Z,18.30
2017-11-17T04:58:19.942Z,18.20
2017-11-17T04:59:24.694Z,18.30
2017-11-17T05:00:29.837Z,18.20
2017-11-17T05:01:34.982Z,18.30
2017-11-17T05:02:40.246Z,18.20
2017-11-17T05:03:45.477Z,18.20
2017-11-17T05:04:50.562Z,18.30
2017-11-17T05:05:55.454Z,18.20
2017-11-17T05:07:00.565Z,18.20
2017-11-17T05:08:05.533Z,18.20
2017-11-17T05:09:10.490Z,18.20
2017-11-17T05:10:15.487Z,18.30
2017-11-17T05:11:20.585Z,18.20
2017-11-17T05:12:25.727Z,18.20
2017-11-17T05:13:30.868Z,18.20
2017-11-17T05:14:36.092Z,18.20
2017-11-17T05:15:41.067Z,18.20
2017-11-17T05:16:46.328Z,18.20
2017-11-17T05:17:52.009Z,18.20
2017-11-17T05:18:57.336Z,18.20
2017-11-17T05:20:02.409Z,18.20
2017-11-17T05:21:07.454Z,18.20
2017-11-17T05:22:14.276Z,18.20
2017-11-17T05:23:19.267Z,18.20
2017-11-17T05:24:24.153Z,18.20
2017-11-17T05:25:29.255Z,18.20
2017-11-17T05:26:34.445Z,18.20
2017-11-17T05:27:39.611Z,18.20
2017-11-17T05:28:44.756Z,18.20
2017-11-17T05:29:49.778Z,18.20
2017-11-17T05:30:54.726Z,18.20
2017-11-17T05:31:59.871Z,18.20
2017-11-17T05:33:04.839Z,18.20
2017-11-17T05:34:09.620Z,18.20
2017-11-17T05:35:14.575Z,18.20
2017-11-17T05:36:19.821Z,18.30
2017-11-17T05:37:26.130Z,18.30
2017-11-17T05:38:32.150Z,18.30
2017-11-17T05:39:37.089Z,18.30
2017-11-17T05:40:42.095Z,18.30
2017-11-17T05:41:47.101Z,18.20
2017-11-17T05:42:52.184Z,18.20
2017-11-17T05:44:09.211Z,18.30
2017-11-17T05:45:14.166Z,18.20
2017-11-17T05:46:18.971Z,18.30
2017-11-17T05:47:23.930Z,18.30
2017-11-17T05:48:28.869Z,18.30
2017-11-17T05:49:33.779Z,18.30
2017-11-17T05:50:38.596Z,18.30
2017-11-17T05:51:43.673Z,18.30
2017-11-17T05:52:48.919Z,18.20
2017-11-17T05:53:53.932Z,18.20
2017-11-17T05:54:59.116Z,18.20
2017-11-17T05:56:04.199Z,18.20
2017-11-17T05:57:09.269Z,18.30
2017-11-17T05:58:14.162Z,18.20
2017-11-17T05:59:19.161Z,18.30
2017-11-17T06:00:24.201Z,18.20
2017-11-17T06:01:29.494Z,18.20
2017-11-17T06:02:34.792Z,18.20
2017-11-17T06:03:40.564Z,18.20
2017-11-17T06:04:45.899Z,18.20
2017-11-17T06:05:51.214Z,18.20
2017-11-17T06:06:58.139Z,18.20
2017-11-17T06:08:04.006Z,18.20
2017-11-17T06:09:09.971Z,18.20
2017-11-17T06:10:14.836Z,18.20
2017-11-17T06:11:20.210Z,18.20
2017-11-17T06:12:25.784Z,18.20
2017-11-17T06:13:31.034Z,18.20
2017-11-17T06:14:36.152Z,18.20
2017-11-17T06:15:41.207Z,18.20
2017-11-17T06:16:46.546Z,18.20
2017-11-17T06:17:51.691Z,18.20
2017-11-17T06:18:56.790Z,18.30
2017-11-17T06:20:02.319Z,18.30
2017-11-17T06:21:07.442Z,18.30
2017-11-17T06:22:12.574Z,18.30
2017-11-17T06:23:17.674Z,18.30
2017-11-17T06:24:22.655Z,18.30
2017-11-17T06:25:27.867Z,18.40
2017-11-17T06:26:33.002Z,18.50
2017-11-17T06:27:38.160Z,18.60
2017-11-17T06:28:43.263Z,18.70
2017-11-17T06:29:48.224Z,18.80
2017-11-17T06:30:53.305Z,18.90
2017-11-17T06:31:58.646Z,19.00
2017-11-17T06:33:04.351Z,19.10
2017-11-17T06:34:09.344Z,19.20
2017-11-17T06:35:14.758Z,19.20
2017-11-17T06:36:20.084Z,19.30
2017-11-17T06:37:25.349Z,19.30
2017-11-17T06:38:30.312Z,19.30
2017-11-17T06:39:35.548Z,19.40
2017-11-17T06:40:41.379Z,19.40
2017-11-17T06:41:46.732Z,19.40
2017-11-17T06:42:52.059Z,19.40
2017-11-17T06:43:57.278Z,19.40
2017-11-17T06:45:02.424Z,19.30
2017-11-17T06:46:08.509Z,19.40
2017-11-17T06:47:13.662Z,19.40
2017-11-17T06:48:19.086Z,19.40
2017-11-17T06:49:24.514Z,19.40
2017-11-17T06:50:29.946Z,19.40
2017-11-17T06:51:35.139Z,19.40
2017-11-17T06:52:40.442Z,19.40
2017-11-17T06:53:45.949Z,19.40
2017-11-17T06:54:51.155Z,19.40
2017-11-17T06:55:56.593Z,19.50
2017-11-17T06:57:02.093Z,19.40
2017-11-17T06:58:07.715Z,19.40
2017-11-17T06:59:12.911Z,19.40
2017-11-17T07:00:18.800Z,19.50
2017-11-17T07:01:25.876Z,19.50
2017-11-17T07:02:31.493Z,19.50
2017-11-17T07:03:36.804Z,19.60
2017-11-17T07:04:42.132Z,19.60
2017-11-17T07:05:47.605Z,19.40
2017-11-17T07:06:52.849Z,19.30
2017-11-17T07:07:58.014Z,19.20
2017-11-17T07:09:06.064Z,19.20
2017-11-17T07:10:11.227Z,19.10
2017-11-17T07:11:16.627Z,18.80
2017-11-17T07:12:21.913Z,18.40
2017-11-17T07:13:27.053Z,18.10
2017-11-17T07:14:32.746Z,18.00
2017-11-17T07:15:38.360Z,17.90
2017-11-17T07:16:43.364Z,18.00
2017-11-17T07:17:49.179Z,18.10
2017-11-17T07:18:54.393Z,18.30
2017-11-17T07:19:59.649Z,18.40
2017-11-17T07:21:05.116Z,18.50
2017-11-17T07:22:10.351Z,18.70
2017-11-17T07:23:15.988Z,18.80
2017-11-17T07:24:21.208Z,18.80
2017-11-17T07:25:27.103Z,18.90
2017-11-17T07:26:33.465Z,18.90
2017-11-17T07:27:38.700Z,18.90
2017-11-17T07:28:44.120Z,18.90
2017-11-17T07:29:49.175Z,18.90
2017-11-17T07:30:55.303Z,18.90
2017-11-17T07:32:00.701Z,19.00
2017-11-17T07:33:05.905Z,19.00
2017-11-17T07:34:11.032Z,19.00
2017-11-17T07:35:16.165Z,19.00
2017-11-17T07:36:21.348Z,19.00
2017-11-17T07:37:26.464Z,18.90
2017-11-17T07:38:37.775Z,18.90
2017-11-17T07:39:42.893Z,18.90
2017-11-17T07:40:47.853Z,18.90
2017-11-17T07:41:52.952Z,18.90
2017-11-17T07:42:58.035Z,18.90
2017-11-17T07:44:03.299Z,18.90
2017-11-17T07:45:08.541Z,18.90
2017-11-17T07:46:13.567Z,18.90
2017-11-17T07:47:18.661Z,18.90
2017-11-17T07:48:24.042Z,18.90
2017-11-17T07:49:29.345Z,18.90
2017-11-17T07:50:34.537Z,18.90
2017-11-17T07:51:39.873Z,18.90
2017-11-17T07:52:44.988Z,18.90
2017-11-17T07:53:50.150Z,18.90
2017-11-17T07:54:55.326Z,18.90
2017-11-17T07:56:00.293Z,18.90
2017-11-17T07:57:05.218Z,18.90
2017-11-17T07:58:10.176Z,19.00
2017-11-17T07:59:15.163Z,19.00
2017-11-17T08:00:21.043Z,19.00
2017-11-17T08:01:26.784Z,19.00
2017-11-17T08:02:32.093Z,18.90
2017-11-17T08:03:39.762Z,18.90
2017-11-17T08:04:45.190Z,18.90
2017-11-17T08:05:51.742Z,18.90
2017-11-17T08:06:57.098Z,18.90
2017-11-17T08:08:02.442Z,18.90
2017-11-17T08:09:07.632Z,18.90
2017-11-17T08:10:12.870Z,18.90
2017-11-17T08:11:17.722Z,18.90
2017-11-17T08:12:22.956Z,18.90
2017-11-17T08:13:28.405Z,18.90
2017-11-17T08:14:33.612Z,18.90
2017-11-17T08:15:38.637Z,18.80
2017-11-17T08:16:43.529Z,18.80
2017-11-17T08:17:48.560Z,18.80
2017-11-17T08:18:54.008Z,18.80
2017-11-17T08:19:59.204Z,18.80
2017-11-17T08:21:04.625Z,18.80
2017-11-17T08:22:09.422Z,18.80
2017-11-17T08:23:14.233Z,18.80
2017-11-17T08:24:19.556Z,18.80
2017-11-17T08:25:24.978Z,18.80
2017-11-17T08:26:30.326Z,18.80
2017-11-17T08:27:35.414Z,18.80
2017-11-17T08:28:40.821Z,18.80
2017-11-17T08:29:45.782Z,18.80
2017-11-17T08:30:50.787Z,18.80
2017-11-17T08:31:55.997Z,18.80
2017-11-17T08:33:00.912Z,18.80
2017-11-17T08:34:05.695Z,18.80
2017-11-17T08:35:10.838Z,18.80
2017-11-17T08:36:16.061Z,18.80
2017-11-17T08:37:21.048Z,18.70
2017-11-17T08:38:26.181Z,18.70
2017-11-17T08:39:31.691Z,18.70
2017-11-17T08:40:37.283Z,18.70
2017-11-17T08:41:42.459Z,18.70
2017-11-17T08:42:47.394Z,18.60
2017-11-17T08:43:52.323Z,18.60
2017-11-17T08:44:57.583Z,18.60
2017-11-17T08:46:02.902Z,18.60
2017-11-17T08:47:07.708Z,18.60
2017-11-17T08:48:12.660Z,18.60
2017-11-17T08:49:17.937Z,18.60
2017-11-17T08:50:23.016Z,18.60
2017-11-17T08:51:28.335Z,18.60
2017-11-17T08:52:34.788Z,18.60
2017-11-17T08:53:39.998Z,18.50
2017-11-17T08:54:45.221Z,18.50
2017-11-17T08:55:50.646Z,18.50
2017-11-17T08:56:55.837Z,18.50
2017-11-17T08:58:01.204Z,18.50
2017-11-17T08:59:06.611Z,18.50
2017-11-17T09:00:24.303Z,18.50
2017-11-17T09:01:29.649Z,18.50
2017-11-17T09:02:34.765Z,18.50
2017-11-17T09:03:40.199Z,18.50
2017-11-17T09:04:45.786Z,18.50
2017-11-17T09:05:51.334Z,18.50
2017-11-17T09:06:56.088Z,18.50
2017-11-17T09:08:01.381Z,18.50
2017-11-17T09:09:06.672Z,18.50
2017-11-17T09:10:12.048Z,18.50
2017-11-17T09:11:17.594Z,18.50
2017-11-17T09:12:23.157Z,18.50
2017-11-17T09:13:28.775Z,18.50
2017-11-17T09:14:34.228Z,18.50
2017-11-17T09:15:39.573Z,18.50
2017-11-17T09:16:44.978Z,18.50
2017-11-17T09:17:50.397Z,18.50
2017-11-17T09:18:55.964Z,18.50
2017-11-17T09:20:02.176Z,18.50
2017-11-17T09:21:07.753Z,18.50
2017-11-17T09:22:13.184Z,18.50
2017-11-17T09:23:18.625Z,18.50
2017-11-17T09:24:24.069Z,18.50
2017-11-17T09:25:29.376Z,18.50
2017-11-17T09:26:34.500Z,18.50
2017-11-17T09:27:39.632Z,18.50
2017-11-17T09:28:44.978Z,18.50
2017-11-17T09:29:50.285Z,18.50
2017-11-17T09:30:55.200Z,18.50
2017-11-17T09:32:01.522Z,18.50
2017-11-17T09:33:06.598Z,18.50
2017-11-17T09:34:11.634Z,18.50
2017-11-17T09:35:16.507Z,18.50
2017-11-17T09:36:21.391Z,18.50
2017-11-17T09:37:26.043Z,18.50
2017-11-17T09:38:31.524Z,18.50
2017-11-17T09:39:36.963Z,18.50
2017-11-17T09:40:42.673Z,18.50
2017-11-17T09:41:47.943Z,18.50
2017-11-17T09:42:53.462Z,18.50
2017-11-17T09:43:58.741Z,18.50
2017-11-17T09:45:04.231Z,18.50
2017-11-17T09:46:09.650Z,18.50
2017-11-17T09:47:16.044Z,18.50
2017-11-17T09:48:21.638Z,18.50
2017-11-17T09:49:56.165Z,18.50
2017-11-17T09:54:41.371Z,18.50
2017-11-17T09:55:47.664Z,18.50
2017-11-17T09:57:12.875Z,18.50
2017-11-17T10:02:11.904Z,18.50
2017-11-17T10:03:27.613Z,18.50
2017-11-17T10:04:49.488Z,18.50
2017-11-17T10:09:27.479Z,18.50
2017-11-17T10:11:28.616Z,18.50
2017-11-17T10:12:39.172Z,18.50
2017-11-17T10:15:28.701Z,18.50
2017-11-17T10:20:59.919Z,18.50
2017-11-17T10:22:04.832Z,18.50
2017-11-17T10:23:09.651Z,18.50
2017-11-17T10:24:14.461Z,18.60
2017-11-17T10:30:55.841Z,18.50
2017-11-17T10:32:02.910Z,18.60
2017-11-17T10:34:46.182Z,18.60
2017-11-17T10:38:03.819Z,18.60
2017-11-17T10:39:21.306Z,18.60
2017-11-17T10:39:39.781Z,18.60
2017-11-17T10:41:21.159Z,18.60
2017-11-17T10:42:39.374Z,18.60
2017-11-17T10:43:44.141Z,18.60
2017-11-17T10:46:09.376Z,18.60
2017-11-17T10:48:17.232Z,18.60
2017-11-17T10:49:55.601Z,18.60
2017-11-17T10:51:16.821Z,18.60
2017-11-17T10:52:44.445Z,18.60
2017-11-17T10:53:50.670Z,18.60
2017-11-17T10:54:55.559Z,18.60
2017-11-17T10:56:00.521Z,18.60
2017-11-17T10:57:27.412Z,18.60
2017-11-17T10:58:40.745Z,18.60
2017-11-17T10:59:54.551Z,18.60
2017-11-17T11:01:06.853Z,18.60
2017-11-17T11:02:16.930Z,18.60
2017-11-17T11:03:32.695Z,18.60
2017-11-17T11:05:41.143Z,18.60
2017-11-17T11:06:53.211Z,18.60
2017-11-17T11:09:28.367Z,18.70
2017-11-17T11:10:48.717Z,18.70
2017-11-17T11:12:57.072Z,18.70
2017-11-17T11:14:12.732Z,18.70
2017-11-17T11:15:30.571Z,18.80
2017-11-17T11:17:01.611Z,18.80
2017-11-17T11:18:17.211Z,18.80
2017-11-17T11:19:26.853Z,18.80
2017-11-17T11:21:53.413Z,18.80
2017-11-17T11:23:11.893Z,18.80
2017-11-17T11:24:30.053Z,18.80
2017-11-17T11:25:35.431Z,18.80
2017-11-17T11:26:41.145Z,18.80
2017-11-17T11:27:46.691Z,18.80
2017-11-17T11:28:51.613Z,18.80
2017-11-17T11:29:56.386Z,18.80
2017-11-17T11:31:01.230Z,18.80
2017-11-17T11:32:06.156Z,18.80
2017-11-17T11:33:11.060Z,18.80
2017-11-17T11:34:20.950Z,18.80
2017-11-17T11:35:29.470Z,18.80
2017-11-17T11:36:34.344Z,18.80
2017-11-17T11:37:39.300Z,18.80
2017-11-17T11:38:44.298Z,18.80
2017-11-17T11:39:49.160Z,18.80
2017-11-17T11:40:53.999Z,18.80
2017-11-17T11:41:58.697Z,18.80
2017-11-17T11:43:03.579Z,18.80
2017-11-17T11:44:08.388Z,18.80
2017-11-17T11:45:13.197Z,18.70
2017-11-17T11:46:18.028Z,18.70
2017-11-17T11:47:22.917Z,18.70
2017-11-17T11:48:27.676Z,18.70
2017-11-17T11:49:32.485Z,18.70
2017-11-17T11:50:37.624Z,18.70
2017-11-17T11:51:45.436Z,18.70
2017-11-17T11:52:50.324Z,18.80
2017-11-17T11:53:55.246Z,18.80
2017-11-17T11:54:59.876Z,18.80
2017-11-17T11:56:04.758Z,18.80
2017-11-17T11:57:09.552Z,18.80
2017-11-17T11:58:14.339Z,18.70
2017-11-17T11:59:19.400Z,18.70
2017-11-17T12:00:24.138Z,18.70
2017-11-17T12:01:28.785Z,18.70
2017-11-17T12:02:33.516Z,18.80
2017-11-17T12:03:38.320Z,18.80
2017-11-17T12:04:43.216Z,18.80
2017-11-17T12:05:48.147Z,18.80
2017-11-17T12:06:53.498Z,18.70
2017-11-17T12:07:58.401Z,18.70
2017-11-17T12:09:03.415Z,18.70
2017-11-17T12:10:08.342Z,18.70
2017-11-17T12:11:13.240Z,18.70
2017-11-17T12:12:18.158Z,18.70
2017-11-17T12:13:23.239Z,18.60
2017-11-17T12:14:28.126Z,18.70
2017-11-17T12:15:33.004Z,18.60
2017-11-17T12:16:37.758Z,18.60
2017-11-17T12:17:42.672Z,18.60
2017-11-17T12:18:47.580Z,18.70
2017-11-17T12:19:52.292Z,18.70
2017-11-17T12:20:57.092Z,18.70
2017-11-17T12:22:02.092Z,18.70
2017-11-17T12:23:06.858Z,18.70
2017-11-17T12:24:12.030Z,18.70
2017-11-17T12:25:17.086Z,18.70
2017-11-17T12:26:21.997Z,18.70
2017-11-17T12:27:26.843Z,18.70
2017-11-17T12:28:31.660Z,18.70
2017-11-17T12:29:36.738Z,18.80
2017-11-17T12:30:41.627Z,18.80
2017-11-17T12:31:46.504Z,18.80
2017-11-17T12:32:51.501Z,18.80
2017-11-17T12:33:56.458Z,18.80
2017-11-17T12:35:01.333Z,18.80
2017-11-17T12:36:06.130Z,18.80
2017-11-17T12:37:11.152Z,18.80
2017-11-17T12:38:16.201Z,18.80
2017-11-17T12:39:21.298Z,18.90
2017-11-17T12:40:26.150Z,18.90
2017-11-17T12:41:30.899Z,18.90
2017-11-17T12:42:35.878Z,18.90
2017-11-17T12:43:41.193Z,18.90
2017-11-17T12:44:46.141Z,18.90
2017-11-17T12:45:50.951Z,18.90
2017-11-17T12:46:55.737Z,18.90
2017-11-17T12:48:00.706Z,18.90
2017-11-17T12:49:05.774Z,18.90
2017-11-17T12:50:11.001Z,18.90
2017-11-17T12:51:15.757Z,18.90
2017-11-17T12:52:20.399Z,18.90
2017-11-17T12:53:25.143Z,18.90
2017-11-17T12:54:29.972Z,18.90
2017-11-17T12:55:34.741Z,18.90
2017-11-17T12:56:39.532Z,18.90
2017-11-17T12:57:44.976Z,18.90
2017-11-17T12:58:49.641Z,18.90
2017-11-17T12:59:54.541Z,18.80
2017-11-17T13:00:59.488Z,18.80
2017-11-17T13:02:04.362Z,18.80
2017-11-17T13:03:09.058Z,18.80
2017-11-17T13:04:13.831Z,18.80
2017-11-17T13:05:18.688Z,18.80
2017-11-17T13:06:23.515Z,18.80
2017-11-17T13:07:28.233Z,18.80
2017-11-17T13:08:33.071Z,18.80
2017-11-17T13:09:37.858Z,18.80
2017-11-17T13:10:42.752Z,18.80
2017-11-17T13:11:47.842Z,18.80
2017-11-17T13:12:52.614Z,18.80
2017-11-17T13:13:57.378Z,18.80
2017-11-17T13:15:02.305Z,18.90
2017-11-17T13:16:07.190Z,18.90
2017-11-17T13:17:12.165Z,18.90
2017-11-17T13:18:17.096Z,18.90
2017-11-17T13:19:22.041Z,18.90
2017-11-17T13:20:27.005Z,18.90
2017-11-17T13:21:31.819Z,19.00
2017-11-17T13:22:36.704Z,19.00
2017-11-17T13:23:41.608Z,19.00
2017-11-17T13:24:46.675Z,19.00
2017-11-17T13:25:51.406Z,19.00
2017-11-17T13:26:56.531Z,19.10
2017-11-17T13:28:01.589Z,19.10
2017-11-17T13:29:06.631Z,19.10
2017-11-17T13:30:11.605Z,19.20
2017-11-17T13:31:16.427Z,19.20
2017-11-17T13:32:21.187Z,19.20
2017-11-17T13:33:25.987Z,19.20
2017-11-17T13:34:30.716Z,19.30
2017-11-17T13:35:35.517Z,19.30
2017-11-17T13:36:40.247Z,19.30
2017-11-17T13:37:45.335Z,19.40
2017-11-17T13:38:50.217Z,19.40
2017-11-17T13:39:55.182Z,19.40
2017-11-17T13:40:59.876Z,19.50
2017-11-17T13:42:04.626Z,19.50
2017-11-17T13:43:09.463Z,19.50
2017-11-17T13:44:14.193Z,19.60
2017-11-17T13:45:19.010Z,19.60
2017-11-17T13:46:23.897Z,19.60
2017-11-17T13:47:28.753Z,19.60
2017-11-17T13:48:33.608Z,19.60
2017-11-17T13:49:38.534Z,19.60
2017-11-17T13:50:43.450Z,19.60
2017-11-17T13:51:48.433Z,19.60
2017-11-17T13:52:53.418Z,19.60
2017-11-17T13:53:58.283Z,19.60
2017-11-17T13:55:03.113Z,19.60
2017-11-17T13:56:07.970Z,19.60
2017-11-17T13:57:12.877Z,19.60
2017-11-17T13:58:17.661Z,19.60
2017-11-17T13:59:22.417Z,19.60
2017-11-17T14:00:27.212Z,19.60
2017-11-17T14:01:32.126Z,19.60
2017-11-17T14:02:37.090Z,19.60
2017-11-17T14:03:42.213Z,19.60
2017-11-17T14:04:47.148Z,19.60
2017-11-17T14:05:52.148Z,19.60
2017-11-17T14:06:57.057Z,19.60
2017-11-17T14:08:02.281Z,19.60
2017-11-17T14:09:07.339Z,19.60
2017-11-17T14:10:12.385Z,19.50
2017-11-17T14:11:17.168Z,19.60
2017-11-17T14:12:22.170Z,19.60
2017-11-17T14:13:27.091Z,19.60
2017-11-17T14:14:32.029Z,19.50
2017-11-17T14:15:37.128Z,19.50
2017-11-17T14:16:42.039Z,19.50
2017-11-17T14:17:46.929Z,19.50
2017-11-17T14:18:51.700Z,19.50
2017-11-17T14:19:56.759Z,19.40
2017-11-17T14:21:01.740Z,19.40
2017-11-17T14:22:06.494Z,19.40
2017-11-17T14:23:11.347Z,19.30
2017-11-17T14:24:16.189Z,19.40
2017-11-17T14:25:21.009Z,19.30
2017-11-17T14:26:25.949Z,19.30
2017-11-17T14:27:30.636Z,19.30
2017-11-17T14:28:35.605Z,19.30
2017-11-17T14:29:40.499Z,19.30
2017-11-17T14:30:45.388Z,19.30
2017-11-17T14:31:50.272Z,19.20
2017-11-17T14:32:55.185Z,19.20
2017-11-17T14:34:00.116Z,19.20
2017-11-17T14:35:05.095Z,19.20
2017-11-17T14:36:10.077Z,19.10
2017-11-17T14:37:14.937Z,19.20
2017-11-17T14:38:20.029Z,19.20